sensor_id;sensor_type;location;lat;lon;timestamp;P1;durP1;ratioP1;P2;durP2;ratioP2
62709;SDS011;48770;51.624;5.886;2023-07-09T00:02:16;13.02;;;8.88;;
62709;SDS011;48770;51.624;5.886;2023-07-09T00:04:42;13.48;;;8.60;;
62709;SDS011;48770;51.624;5.886;2023-07-09T00:07:12;13.77;;;9.40;;
62709;SDS011;48770;51.624;5.886;2023-07-09T00:09:42;13.32;;;8.95;;
62709;SDS011;48770;51.624;5.886;2023-07-09T00:12:12;16.60;;;8.70;;
62709;SDS011;48770;51.624;5.886;2023-07-09T00:14:39;12.13;;;8.45;;
62709;SDS011;48770;51.624;5.886;2023-07-09T00:17:08;13.87;;;8.97;;
62709;SDS011;48770;51.624;5.886;2023-07-09T00:19:36;12.27;;;8.93;;
62709;SDS011;48770;51.624;5.886;2023-07-09T00:22:01;13.82;;;8.80;;
62709;SDS011;48770;51.624;5.886;2023-07-09T00:24:26;14.85;;;9.02;;
62709;SDS011;48770;51.624;5.886;2023-07-09T00:26:52;12.50;;;9.32;;
62709;SDS011;48770;51.624;5.886;2023-07-09T00:29:18;14.43;;;9.27;;
62709;SDS011;48770;51.624;5.886;2023-07-09T00:31:43;10.88;;;9.07;;
62709;SDS011;48770;51.624;5.886;2023-07-09T00:34:13;12.48;;;9.27;;
62709;SDS011;48770;51.624;5.886;2023-07-09T00:36:40;13.88;;;8.85;;
62709;SDS011;48770;51.624;5.886;2023-07-09T00:39:20;13.60;;;9.68;;
62709;SDS011;48770;51.624;5.886;2023-07-09T00:41:47;13.52;;;9.27;;
62709;SDS011;48770;51.624;5.886;2023-07-09T00:49:14;15.80;;;9.18;;
62709;SDS011;48770;51.624;5.886;2023-07-09T00:52:05;12.23;;;8.75;;
62709;SDS011;48770;51.624;5.886;2023-07-09T00:54:47;11.73;;;9.10;;
62709;SDS011;48770;51.624;5.886;2023-07-09T00:57:17;14.80;;;9.40;;
62709;SDS011;48770;51.624;5.886;2023-07-09T00:59:47;16.23;;;9.10;;
62709;SDS011;48770;51.624;5.886;2023-07-09T01:02:16;17.70;;;9.43;;
62709;SDS011;48770;51.624;5.886;2023-07-09T01:04:42;15.90;;;9.82;;
62709;SDS011;48770;51.624;5.886;2023-07-09T01:07:08;13.00;;;9.30;;
62709;SDS011;48770;51.624;5.886;2023-07-09T01:09:33;12.70;;;10.20;;
62709;SDS011;48770;51.624;5.886;2023-07-09T01:12:05;13.60;;;9.43;;
62709;SDS011;48770;51.624;5.886;2023-07-09T01:14:34;14.05;;;9.90;;
62709;SDS011;48770;51.624;5.886;2023-07-09T01:17:01;14.23;;;9.43;;
62709;SDS011;48770;51.624;5.886;2023-07-09T01:19:30;17.95;;;10.15;;
62709;SDS011;48770;51.624;5.886;2023-07-09T01:22:05;15.90;;;9.43;;
62709;SDS011;48770;51.624;5.886;2023-07-09T01:27:13;12.23;;;9.23;;
62709;SDS011;48770;51.624;5.886;2023-07-09T01:29:39;13.93;;;9.85;;
62709;SDS011;48770;51.624;5.886;2023-07-09T01:32:06;15.30;;;10.52;;
62709;SDS011;48770;51.624;5.886;2023-07-09T01:34:32;16.70;;;10.23;;
62709;SDS011;48770;51.624;5.886;2023-07-09T01:36:58;17.63;;;9.70;;
62709;SDS011;48770;51.624;5.886;2023-07-09T01:39:23;17.33;;;10.07;;
62709;SDS011;48770;51.624;5.886;2023-07-09T01:41:49;14.27;;;10.20;;
62709;SDS011;48770;51.624;5.886;2023-07-09T01:44:14;13.57;;;9.85;;
62709;SDS011;48770;51.624;5.886;2023-07-09T01:46:40;13.80;;;9.87;;
62709;SDS011;48770;51.624;5.886;2023-07-09T01:49:06;11.73;;;9.90;;
62709;SDS011;48770;51.624;5.886;2023-07-09T01:51:34;14.13;;;9.43;;
62709;SDS011;48770;51.624;5.886;2023-07-09T01:54:01;16.73;;;9.43;;
62709;SDS011;48770;51.624;5.886;2023-07-09T01:56:26;14.13;;;9.80;;
62709;SDS011;48770;51.624;5.886;2023-07-09T01:58:52;17.02;;;10.13;;
62709;SDS011;48770;51.624;5.886;2023-07-09T02:01:17;17.70;;;10.35;;
62709;SDS011;48770;51.624;5.886;2023-07-09T02:03:44;15.18;;;10.20;;
62709;SDS011;48770;51.624;5.886;2023-07-09T02:06:10;14.13;;;10.07;;
62709;SDS011;48770;51.624;5.886;2023-07-09T02:08:36;18.90;;;10.13;;
62709;SDS011;48770;51.624;5.886;2023-07-09T02:11:01;13.23;;;10.23;;
62709;SDS011;48770;51.624;5.886;2023-07-09T02:13:27;18.92;;;9.98;;
62709;SDS011;48770;51.624;5.886;2023-07-09T02:15:52;12.47;;;10.07;;
62709;SDS011;48770;51.624;5.886;2023-07-09T02:18:17;13.23;;;9.97;;
62709;SDS011;48770;51.624;5.886;2023-07-09T02:20:45;13.13;;;9.88;;
62709;SDS011;48770;51.624;5.886;2023-07-09T02:23:11;14.82;;;10.38;;
62709;SDS011;48770;51.624;5.886;2023-07-09T02:25:36;16.97;;;10.23;;
62709;SDS011;48770;51.624;5.886;2023-07-09T02:28:02;18.92;;;10.95;;
62709;SDS011;48770;51.624;5.886;2023-07-09T02:30:28;14.32;;;10.73;;
62709;SDS011;48770;51.624;5.886;2023-07-09T02:32:53;14.88;;;10.35;;
62709;SDS011;48770;51.624;5.886;2023-07-09T02:35:19;16.98;;;10.13;;
62709;SDS011;48770;51.624;5.886;2023-07-09T02:37:45;14.63;;;10.52;;
62709;SDS011;48770;51.624;5.886;2023-07-09T02:40:11;14.30;;;9.85;;
62709;SDS011;48770;51.624;5.886;2023-07-09T02:42:37;17.17;;;10.15;;
62709;SDS011;48770;51.624;5.886;2023-07-09T02:45:03;15.82;;;10.10;;
62709;SDS011;48770;51.624;5.886;2023-07-09T02:47:29;15.20;;;9.60;;
62709;SDS011;48770;51.624;5.886;2023-07-09T02:49:54;13.07;;;9.75;;
62709;SDS011;48770;51.624;5.886;2023-07-09T02:52:19;14.47;;;10.10;;
62709;SDS011;48770;51.624;5.886;2023-07-09T02:54:45;15.87;;;10.13;;
62709;SDS011;48770;51.624;5.886;2023-07-09T02:57:10;13.33;;;10.20;;
62709;SDS011;48770;51.624;5.886;2023-07-09T02:59:35;14.50;;;9.90;;
62709;SDS011;48770;51.624;5.886;2023-07-09T03:02:01;14.30;;;10.03;;
62709;SDS011;48770;51.624;5.886;2023-07-09T03:04:27;15.32;;;10.10;;
62709;SDS011;48770;51.624;5.886;2023-07-09T03:06:52;14.77;;;10.40;;
62709;SDS011;48770;51.624;5.886;2023-07-09T03:09:17;18.58;;;10.65;;
62709;SDS011;48770;51.624;5.886;2023-07-09T03:11:43;13.35;;;10.38;;
62709;SDS011;48770;51.624;5.886;2023-07-09T03:14:09;14.20;;;10.20;;
62709;SDS011;48770;51.624;5.886;2023-07-09T03:16:34;11.25;;;8.68;;
62709;SDS011;48770;51.624;5.886;2023-07-09T03:19:00;14.45;;;9.82;;
62709;SDS011;48770;51.624;5.886;2023-07-09T03:21:26;13.93;;;10.27;;
62709;SDS011;48770;51.624;5.886;2023-07-09T03:23:53;12.25;;;8.90;;
62709;SDS011;48770;51.624;5.886;2023-07-09T03:26:19;12.65;;;9.27;;
62709;SDS011;48770;51.624;5.886;2023-07-09T03:28:45;16.45;;;11.05;;
62709;SDS011;48770;51.624;5.886;2023-07-09T03:31:10;15.30;;;10.57;;
62709;SDS011;48770;51.624;5.886;2023-07-09T03:33:36;16.13;;;10.15;;
62709;SDS011;48770;51.624;5.886;2023-07-09T03:36:01;13.20;;;9.68;;
62709;SDS011;48770;51.624;5.886;2023-07-09T03:38:26;16.27;;;10.98;;
62709;SDS011;48770;51.624;5.886;2023-07-09T03:40:52;17.27;;;11.23;;
62709;SDS011;48770;51.624;5.886;2023-07-09T03:43:19;17.10;;;11.25;;
62709;SDS011;48770;51.624;5.886;2023-07-09T03:45:45;16.23;;;10.60;;
62709;SDS011;48770;51.624;5.886;2023-07-09T03:48:11;15.82;;;10.80;;
62709;SDS011;48770;51.624;5.886;2023-07-09T03:50:37;14.40;;;10.63;;
62709;SDS011;48770;51.624;5.886;2023-07-09T03:53:02;17.27;;;10.40;;
62709;SDS011;48770;51.624;5.886;2023-07-09T03:55:28;19.73;;;11.13;;
62709;SDS011;48770;51.624;5.886;2023-07-09T03:57:53;14.40;;;10.53;;
62709;SDS011;48770;51.624;5.886;2023-07-09T04:00:19;16.80;;;10.57;;
62709;SDS011;48770;51.624;5.886;2023-07-09T04:02:45;17.48;;;10.60;;
62709;SDS011;48770;51.624;5.886;2023-07-09T04:05:10;15.27;;;10.80;;
62709;SDS011;48770;51.624;5.886;2023-07-09T04:07:36;14.48;;;10.10;;
62709;SDS011;48770;51.624;5.886;2023-07-09T04:10:02;15.52;;;9.95;;
62709;SDS011;48770;51.624;5.886;2023-07-09T04:12:28;17.50;;;12.05;;
62709;SDS011;48770;51.624;5.886;2023-07-09T04:14:53;17.60;;;10.17;;
62709;SDS011;48770;51.624;5.886;2023-07-09T04:17:19;19.88;;;12.07;;
62709;SDS011;48770;51.624;5.886;2023-07-09T04:19:44;19.20;;;11.25;;
62709;SDS011;48770;51.624;5.886;2023-07-09T04:22:12;16.33;;;10.20;;
62709;SDS011;48770;51.624;5.886;2023-07-09T04:24:38;16.05;;;10.75;;
62709;SDS011;48770;51.624;5.886;2023-07-09T04:27:03;16.60;;;10.07;;
62709;SDS011;48770;51.624;5.886;2023-07-09T04:29:29;15.23;;;9.80;;
62709;SDS011;48770;51.624;5.886;2023-07-09T04:31:55;15.30;;;10.15;;
62709;SDS011;48770;51.624;5.886;2023-07-09T04:34:21;17.40;;;10.80;;
62709;SDS011;48770;51.624;5.886;2023-07-09T04:36:46;13.55;;;10.23;;
62709;SDS011;48770;51.624;5.886;2023-07-09T04:39:12;22.05;;;10.93;;
62709;SDS011;48770;51.624;5.886;2023-07-09T04:41:37;15.35;;;10.43;;
62709;SDS011;48770;51.624;5.886;2023-07-09T04:44:02;14.85;;;10.55;;
62709;SDS011;48770;51.624;5.886;2023-07-09T04:46:28;15.07;;;10.48;;
62709;SDS011;48770;51.624;5.886;2023-07-09T04:48:53;16.67;;;11.10;;
62709;SDS011;48770;51.624;5.886;2023-07-09T04:51:20;17.30;;;10.27;;
62709;SDS011;48770;51.624;5.886;2023-07-09T04:53:46;17.40;;;10.88;;
62709;SDS011;48770;51.624;5.886;2023-07-09T04:56:11;16.15;;;10.63;;
62709;SDS011;48770;51.624;5.886;2023-07-09T04:58:36;15.70;;;10.85;;
62709;SDS011;48770;51.624;5.886;2023-07-09T05:01:01;14.93;;;10.70;;
62709;SDS011;48770;51.624;5.886;2023-07-09T05:03:27;17.73;;;11.20;;
62709;SDS011;48770;51.624;5.886;2023-07-09T05:05:52;15.25;;;10.05;;
62709;SDS011;48770;51.624;5.886;2023-07-09T05:08:17;15.50;;;11.47;;
62709;SDS011;48770;51.624;5.886;2023-07-09T05:10:43;17.05;;;10.50;;
62709;SDS011;48770;51.624;5.886;2023-07-09T05:13:14;16.75;;;12.07;;
62709;SDS011;48770;51.624;5.886;2023-07-09T05:15:40;16.38;;;11.10;;
62709;SDS011;48770;51.624;5.886;2023-07-09T05:18:06;17.17;;;11.57;;
62709;SDS011;48770;51.624;5.886;2023-07-09T05:20:33;16.15;;;11.18;;
62709;SDS011;48770;51.624;5.886;2023-07-09T05:22:58;15.13;;;11.63;;
62709;SDS011;48770;51.624;5.886;2023-07-09T05:25:24;16.15;;;10.75;;
62709;SDS011;48770;51.624;5.886;2023-07-09T05:27:49;15.57;;;10.77;;
62709;SDS011;48770;51.624;5.886;2023-07-09T05:30:14;16.50;;;11.43;;
62709;SDS011;48770;51.624;5.886;2023-07-09T05:32:40;18.63;;;11.13;;
62709;SDS011;48770;51.624;5.886;2023-07-09T05:35:05;17.50;;;11.00;;
62709;SDS011;48770;51.624;5.886;2023-07-09T05:37:31;16.33;;;10.77;;
62709;SDS011;48770;51.624;5.886;2023-07-09T05:39:56;13.32;;;10.65;;
62709;SDS011;48770;51.624;5.886;2023-07-09T05:42:21;17.00;;;11.10;;
62709;SDS011;48770;51.624;5.886;2023-07-09T05:44:47;17.75;;;11.02;;
62709;SDS011;48770;51.624;5.886;2023-07-09T05:47:13;16.30;;;10.90;;
62709;SDS011;48770;51.624;5.886;2023-07-09T05:49:38;17.10;;;10.65;;
62709;SDS011;48770;51.624;5.886;2023-07-09T05:52:04;19.05;;;10.27;;
62709;SDS011;48770;51.624;5.886;2023-07-09T05:54:30;18.20;;;11.45;;
62709;SDS011;48770;51.624;5.886;2023-07-09T05:56:56;13.60;;;9.63;;
62709;SDS011;48770;51.624;5.886;2023-07-09T05:59:21;15.88;;;9.70;;
62709;SDS011;48770;51.624;5.886;2023-07-09T06:01:47;16.00;;;10.27;;
62709;SDS011;48770;51.624;5.886;2023-07-09T06:04:12;13.57;;;9.27;;
62709;SDS011;48770;51.624;5.886;2023-07-09T06:06:39;19.02;;;10.07;;
62709;SDS011;48770;51.624;5.886;2023-07-09T06:09:06;14.73;;;10.15;;
62709;SDS011;48770;51.624;5.886;2023-07-09T06:11:31;13.60;;;8.85;;
62709;SDS011;48770;51.624;5.886;2023-07-09T06:13:57;11.88;;;8.60;;
62709;SDS011;48770;51.624;5.886;2023-07-09T06:16:23;12.88;;;7.97;;
62709;SDS011;48770;51.624;5.886;2023-07-09T06:18:49;11.75;;;8.10;;
62709;SDS011;48770;51.624;5.886;2023-07-09T06:21:14;13.50;;;8.20;;
62709;SDS011;48770;51.624;5.886;2023-07-09T06:23:39;11.32;;;6.85;;
62709;SDS011;48770;51.624;5.886;2023-07-09T06:26:05;9.57;;;6.90;;
62709;SDS011;48770;51.624;5.886;2023-07-09T06:28:30;11.02;;;7.18;;
62709;SDS011;48770;51.624;5.886;2023-07-09T06:30:56;11.45;;;7.75;;
62709;SDS011;48770;51.624;5.886;2023-07-09T06:33:22;13.40;;;7.32;;
62709;SDS011;48770;51.624;5.886;2023-07-09T06:35:49;11.43;;;7.25;;
62709;SDS011;48770;51.624;5.886;2023-07-09T06:38:16;11.20;;;6.50;;
62709;SDS011;48770;51.624;5.886;2023-07-09T06:40:42;11.80;;;6.68;;
62709;SDS011;48770;51.624;5.886;2023-07-09T06:43:07;10.40;;;6.47;;
62709;SDS011;48770;51.624;5.886;2023-07-09T06:45:33;11.63;;;6.60;;
62709;SDS011;48770;51.624;5.886;2023-07-09T06:47:59;10.27;;;6.70;;
62709;SDS011;48770;51.624;5.886;2023-07-09T06:50:25;10.02;;;6.35;;
62709;SDS011;48770;51.624;5.886;2023-07-09T06:52:50;10.07;;;6.70;;
62709;SDS011;48770;51.624;5.886;2023-07-09T06:55:15;9.47;;;6.10;;
62709;SDS011;48770;51.624;5.886;2023-07-09T06:57:41;8.60;;;6.37;;
62709;SDS011;48770;51.624;5.886;2023-07-09T07:00:06;6.47;;;5.77;;
62709;SDS011;48770;51.624;5.886;2023-07-09T07:02:32;10.88;;;6.30;;
62709;SDS011;48770;51.624;5.886;2023-07-09T07:04:57;7.78;;;5.68;;
62709;SDS011;48770;51.624;5.886;2023-07-09T07:07:23;10.57;;;6.35;;
62709;SDS011;48770;51.624;5.886;2023-07-09T07:09:48;9.57;;;6.30;;
62709;SDS011;48770;51.624;5.886;2023-07-09T07:12:22;8.65;;;6.03;;
62709;SDS011;48770;51.624;5.886;2023-07-09T07:14:49;9.50;;;5.95;;
62709;SDS011;48770;51.624;5.886;2023-07-09T07:17:14;9.40;;;5.97;;
62709;SDS011;48770;51.624;5.886;2023-07-09T07:19:39;7.40;;;5.30;;
62709;SDS011;48770;51.624;5.886;2023-07-09T07:22:05;9.87;;;5.90;;
62709;SDS011;48770;51.624;5.886;2023-07-09T07:24:32;7.68;;;5.45;;
62709;SDS011;48770;51.624;5.886;2023-07-09T07:26:57;7.38;;;5.63;;
62709;SDS011;48770;51.624;5.886;2023-07-09T07:29:22;7.68;;;5.72;;
62709;SDS011;48770;51.624;5.886;2023-07-09T07:31:48;9.03;;;5.73;;
62709;SDS011;48770;51.624;5.886;2023-07-09T07:34:13;7.68;;;5.97;;
62709;SDS011;48770;51.624;5.886;2023-07-09T07:36:39;9.27;;;6.03;;
62709;SDS011;48770;51.624;5.886;2023-07-09T07:39:04;6.32;;;5.18;;
62709;SDS011;48770;51.624;5.886;2023-07-09T07:41:30;8.73;;;5.30;;
62709;SDS011;48770;51.624;5.886;2023-07-09T07:43:55;6.83;;;5.07;;
62709;SDS011;48770;51.624;5.886;2023-07-09T07:46:20;8.25;;;5.30;;
62709;SDS011;48770;51.624;5.886;2023-07-09T07:48:46;7.13;;;5.28;;
62709;SDS011;48770;51.624;5.886;2023-07-09T07:51:11;8.45;;;5.47;;
62709;SDS011;48770;51.624;5.886;2023-07-09T07:53:36;7.85;;;5.25;;
62709;SDS011;48770;51.624;5.886;2023-07-09T07:56:01;8.47;;;5.33;;
62709;SDS011;48770;51.624;5.886;2023-07-09T07:58:27;6.80;;;5.70;;
62709;SDS011;48770;51.624;5.886;2023-07-09T08:00:56;6.40;;;4.95;;
62709;SDS011;48770;51.624;5.886;2023-07-09T08:03:22;7.90;;;5.40;;
62709;SDS011;48770;51.624;5.886;2023-07-09T08:05:51;7.30;;;4.90;;
62709;SDS011;48770;51.624;5.886;2023-07-09T08:08:17;8.48;;;4.65;;
62709;SDS011;48770;51.624;5.886;2023-07-09T08:10:43;8.63;;;5.20;;
62709;SDS011;48770;51.624;5.886;2023-07-09T08:13:08;8.43;;;4.80;;
62709;SDS011;48770;51.624;5.886;2023-07-09T08:15:34;6.93;;;5.00;;
62709;SDS011;48770;51.624;5.886;2023-07-09T08:17:59;7.45;;;5.40;;
62709;SDS011;48770;51.624;5.886;2023-07-09T08:20:25;7.20;;;4.93;;
62709;SDS011;48770;51.624;5.886;2023-07-09T08:22:50;5.93;;;4.80;;
62709;SDS011;48770;51.624;5.886;2023-07-09T08:25:15;6.72;;;4.97;;
62709;SDS011;48770;51.624;5.886;2023-07-09T08:27:41;7.25;;;4.88;;
62709;SDS011;48770;51.624;5.886;2023-07-09T08:30:06;6.38;;;5.00;;
62709;SDS011;48770;51.624;5.886;2023-07-09T08:32:33;8.48;;;5.22;;
62709;SDS011;48770;51.624;5.886;2023-07-09T08:34:58;8.73;;;5.00;;
62709;SDS011;48770;51.624;5.886;2023-07-09T08:37:23;7.07;;;4.65;;
62709;SDS011;48770;51.624;5.886;2023-07-09T08:39:49;6.22;;;4.40;;
62709;SDS011;48770;51.624;5.886;2023-07-09T08:42:16;6.97;;;4.97;;
62709;SDS011;48770;51.624;5.886;2023-07-09T08:52:44;5.57;;;4.60;;
62709;SDS011;48770;51.624;5.886;2023-07-09T08:55:12;4.82;;;4.13;;
62709;SDS011;48770;51.624;5.886;2023-07-09T08:57:41;7.28;;;5.07;;
62709;SDS011;48770;51.624;5.886;2023-07-09T09:03:04;6.45;;;4.85;;
62709;SDS011;48770;51.624;5.886;2023-07-09T09:05:35;5.40;;;4.35;;
62709;SDS011;48770;51.624;5.886;2023-07-09T09:08:12;5.10;;;4.20;;
62709;SDS011;48770;51.624;5.886;2023-07-09T09:13:55;5.97;;;4.43;;
62709;SDS011;48770;51.624;5.886;2023-07-09T09:16:35;5.65;;;4.32;;
62709;SDS011;48770;51.624;5.886;2023-07-09T09:19:06;12.10;;;4.55;;
62709;SDS011;48770;51.624;5.886;2023-07-09T09:21:47;5.10;;;4.60;;
62709;SDS011;48770;51.624;5.886;2023-07-09T09:24:29;6.07;;;4.40;;
62709;SDS011;48770;51.624;5.886;2023-07-09T09:26:59;8.55;;;4.20;;
62709;SDS011;48770;51.624;5.886;2023-07-09T09:29:25;7.53;;;4.30;;
62709;SDS011;48770;51.624;5.886;2023-07-09T09:31:52;6.05;;;4.40;;
62709;SDS011;48770;51.624;5.886;2023-07-09T09:34:25;10.45;;;4.93;;
62709;SDS011;48770;51.624;5.886;2023-07-09T09:36:52;13.65;;;5.10;;
62709;SDS011;48770;51.624;5.886;2023-07-09T09:39:18;10.88;;;5.22;;
62709;SDS011;48770;51.624;5.886;2023-07-09T09:41:44;11.90;;;5.07;;
62709;SDS011;48770;51.624;5.886;2023-07-09T09:44:20;12.55;;;4.43;;
62709;SDS011;48770;51.624;5.886;2023-07-09T09:46:50;12.48;;;5.10;;
62709;SDS011;48770;51.624;5.886;2023-07-09T09:49:16;17.65;;;5.60;;
62709;SDS011;48770;51.624;5.886;2023-07-09T09:51:43;21.75;;;6.50;;
62709;SDS011;48770;51.624;5.886;2023-07-09T09:54:21;19.15;;;6.05;;
62709;SDS011;48770;51.624;5.886;2023-07-09T09:56:50;24.67;;;6.15;;
62709;SDS011;48770;51.624;5.886;2023-07-09T09:59:21;25.63;;;6.40;;
62709;SDS011;48770;51.624;5.886;2023-07-09T10:02:05;16.10;;;5.25;;
62709;SDS011;48770;51.624;5.886;2023-07-09T10:04:40;16.17;;;6.45;;
62709;SDS011;48770;51.624;5.886;2023-07-09T10:07:06;18.60;;;5.83;;
62709;SDS011;48770;51.624;5.886;2023-07-09T10:09:38;15.73;;;5.85;;
62709;SDS011;48770;51.624;5.886;2023-07-09T10:15:02;14.60;;;5.82;;
62709;SDS011;48770;51.624;5.886;2023-07-09T10:22:57;14.60;;;5.57;;
62709;SDS011;48770;51.624;5.886;2023-07-09T10:25:36;15.18;;;5.15;;
62709;SDS011;48770;51.624;5.886;2023-07-09T10:39:11;14.15;;;5.15;;
62709;SDS011;48770;51.624;5.886;2023-07-09T10:41:48;10.43;;;5.00;;
62709;SDS011;48770;51.624;5.886;2023-07-09T10:44:20;14.45;;;5.15;;
62709;SDS011;48770;51.624;5.886;2023-07-09T10:46:52;11.45;;;4.78;;
62709;SDS011;48770;51.624;5.886;2023-07-09T10:49:24;15.57;;;5.18;;
62709;SDS011;48770;51.624;5.886;2023-07-09T10:57:25;8.68;;;4.80;;
62709;SDS011;48770;51.624;5.886;2023-07-09T10:59:54;11.68;;;4.90;;
62709;SDS011;48770;51.624;5.886;2023-07-09T11:02:30;12.52;;;4.93;;
62709;SDS011;48770;51.624;5.886;2023-07-09T11:04:58;8.75;;;4.63;;
62709;SDS011;48770;51.624;5.886;2023-07-09T11:07:36;8.40;;;4.78;;
62709;SDS011;48770;51.624;5.886;2023-07-09T11:10:14;10.63;;;4.30;;
62709;SDS011;48770;51.624;5.886;2023-07-09T11:12:49;9.65;;;4.50;;
62709;SDS011;48770;51.624;5.886;2023-07-09T11:15:24;10.98;;;5.03;;
62709;SDS011;48770;51.624;5.886;2023-07-09T11:17:56;8.65;;;4.55;;
62709;SDS011;48770;51.624;5.886;2023-07-09T11:20:35;12.63;;;4.65;;
62709;SDS011;48770;51.624;5.886;2023-07-09T11:23:16;12.25;;;4.90;;
62709;SDS011;48770;51.624;5.886;2023-07-09T11:25:48;8.98;;;4.25;;
62709;SDS011;48770;51.624;5.886;2023-07-09T11:28:14;10.32;;;4.47;;
62709;SDS011;48770;51.624;5.886;2023-07-09T11:30:47;6.72;;;3.85;;
62709;SDS011;48770;51.624;5.886;2023-07-09T11:33:19;8.35;;;4.55;;
62709;SDS011;48770;51.624;5.886;2023-07-09T11:36:06;10.55;;;4.32;;
62709;SDS011;48770;51.624;5.886;2023-07-09T11:38:43;6.32;;;4.18;;
62709;SDS011;48770;51.624;5.886;2023-07-09T11:49:14;7.70;;;4.22;;
62709;SDS011;48770;51.624;5.886;2023-07-09T11:51:42;6.63;;;3.67;;
62709;SDS011;48770;51.624;5.886;2023-07-09T11:54:12;6.15;;;4.25;;
62709;SDS011;48770;51.624;5.886;2023-07-09T11:56:40;7.35;;;3.83;;
62709;SDS011;48770;51.624;5.886;2023-07-09T11:59:07;9.45;;;4.30;;
62709;SDS011;48770;51.624;5.886;2023-07-09T12:01:38;7.00;;;3.80;;
62709;SDS011;48770;51.624;5.886;2023-07-09T12:04:12;7.93;;;3.90;;
62709;SDS011;48770;51.624;5.886;2023-07-09T12:06:40;6.72;;;3.67;;
62709;SDS011;48770;51.624;5.886;2023-07-09T12:09:05;7.15;;;3.72;;
62709;SDS011;48770;51.624;5.886;2023-07-09T12:11:32;7.50;;;3.40;;
62709;SDS011;48770;51.624;5.886;2023-07-09T12:14:02;4.65;;;3.67;;
62709;SDS011;48770;51.624;5.886;2023-07-09T12:16:30;6.18;;;4.10;;
62709;SDS011;48770;51.624;5.886;2023-07-09T12:18:59;5.95;;;3.30;;
62709;SDS011;48770;51.624;5.886;2023-07-09T12:21:25;4.32;;;3.50;;
62709;SDS011;48770;51.624;5.886;2023-07-09T12:23:51;4.32;;;3.15;;
62709;SDS011;48770;51.624;5.886;2023-07-09T12:26:18;5.32;;;3.35;;
62709;SDS011;48770;51.624;5.886;2023-07-09T12:28:54;6.28;;;3.25;;
62709;SDS011;48770;51.624;5.886;2023-07-09T12:31:25;4.78;;;3.58;;
62709;SDS011;48770;51.624;5.886;2023-07-09T12:33:53;6.05;;;3.22;;
62709;SDS011;48770;51.624;5.886;2023-07-09T12:36:20;5.50;;;3.60;;
62709;SDS011;48770;51.624;5.886;2023-07-09T12:38:47;5.88;;;3.47;;
62709;SDS011;48770;51.624;5.886;2023-07-09T12:41:18;5.88;;;3.65;;
62709;SDS011;48770;51.624;5.886;2023-07-09T12:43:53;5.15;;;3.55;;
62709;SDS011;48770;51.624;5.886;2023-07-09T12:46:20;4.60;;;3.30;;
62709;SDS011;48770;51.624;5.886;2023-07-09T12:48:46;6.47;;;3.25;;
62709;SDS011;48770;51.624;5.886;2023-07-09T12:51:14;6.70;;;3.70;;
62709;SDS011;48770;51.624;5.886;2023-07-09T12:53:43;3.85;;;3.28;;
62709;SDS011;48770;51.624;5.886;2023-07-09T12:56:11;5.88;;;3.70;;
62709;SDS011;48770;51.624;5.886;2023-07-09T12:58:38;5.13;;;2.92;;
62709;SDS011;48770;51.624;5.886;2023-07-09T13:01:05;4.53;;;3.50;;
62709;SDS011;48770;51.624;5.886;2023-07-09T13:03:38;4.47;;;3.40;;
62709;SDS011;48770;51.624;5.886;2023-07-09T13:06:05;4.57;;;3.40;;
62709;SDS011;48770;51.624;5.886;2023-07-09T13:08:43;5.38;;;3.20;;
62709;SDS011;48770;51.624;5.886;2023-07-09T13:11:15;5.25;;;3.47;;
62709;SDS011;48770;51.624;5.886;2023-07-09T13:13:42;5.97;;;3.25;;
62709;SDS011;48770;51.624;5.886;2023-07-09T13:16:19;5.28;;;3.33;;
62709;SDS011;48770;51.624;5.886;2023-07-09T13:18:45;5.40;;;3.37;;
62709;SDS011;48770;51.624;5.886;2023-07-09T13:21:16;5.60;;;3.47;;
62709;SDS011;48770;51.624;5.886;2023-07-09T13:23:43;5.57;;;3.53;;
62709;SDS011;48770;51.624;5.886;2023-07-09T13:26:08;3.35;;;2.80;;
62709;SDS011;48770;51.624;5.886;2023-07-09T13:28:33;6.88;;;3.58;;
62709;SDS011;48770;51.624;5.886;2023-07-09T13:31:00;8.05;;;3.03;;
62709;SDS011;48770;51.624;5.886;2023-07-09T13:33:32;4.38;;;3.10;;
62709;SDS011;48770;51.624;5.886;2023-07-09T13:35:58;3.65;;;3.15;;
62709;SDS011;48770;51.624;5.886;2023-07-09T13:38:24;4.35;;;3.45;;
62709;SDS011;48770;51.624;5.886;2023-07-09T13:40:51;4.00;;;3.20;;
62709;SDS011;48770;51.624;5.886;2023-07-09T13:43:37;4.10;;;3.25;;
62709;SDS011;48770;51.624;5.886;2023-07-09T13:46:06;4.45;;;3.33;;
62709;SDS011;48770;51.624;5.886;2023-07-09T13:48:33;4.68;;;3.22;;
62709;SDS011;48770;51.624;5.886;2023-07-09T13:51:00;4.20;;;2.92;;
62709;SDS011;48770;51.624;5.886;2023-07-09T13:53:27;4.45;;;2.97;;
62709;SDS011;48770;51.624;5.886;2023-07-09T13:55:56;5.55;;;3.47;;
62709;SDS011;48770;51.624;5.886;2023-07-09T13:58:22;3.92;;;3.33;;
62709;SDS011;48770;51.624;5.886;2023-07-09T14:00:50;4.55;;;3.45;;
62709;SDS011;48770;51.624;5.886;2023-07-09T14:03:23;4.47;;;3.53;;
62709;SDS011;48770;51.624;5.886;2023-07-09T14:05:51;4.47;;;3.67;;
62709;SDS011;48770;51.624;5.886;2023-07-09T14:08:16;5.38;;;3.85;;
62709;SDS011;48770;51.624;5.886;2023-07-09T14:10:44;5.03;;;3.70;;
62709;SDS011;48770;51.624;5.886;2023-07-09T14:13:14;6.05;;;4.07;;
62709;SDS011;48770;51.624;5.886;2023-07-09T14:15:40;3.72;;;3.35;;
62709;SDS011;48770;51.624;5.886;2023-07-09T14:18:13;5.15;;;3.80;;
62709;SDS011;48770;51.624;5.886;2023-07-09T14:20:44;4.18;;;3.55;;
62709;SDS011;48770;51.624;5.886;2023-07-09T14:23:10;4.60;;;3.22;;
62709;SDS011;48770;51.624;5.886;2023-07-09T14:25:37;4.65;;;3.53;;
62709;SDS011;48770;51.624;5.886;2023-07-09T14:28:04;5.63;;;3.55;;
62709;SDS011;48770;51.624;5.886;2023-07-09T14:30:33;7.57;;;3.95;;
62709;SDS011;48770;51.624;5.886;2023-07-09T14:32:59;4.90;;;3.67;;
62709;SDS011;48770;51.624;5.886;2023-07-09T14:35:25;5.47;;;4.28;;
62709;SDS011;48770;51.624;5.886;2023-07-09T14:37:52;3.78;;;3.20;;
62709;SDS011;48770;51.624;5.886;2023-07-09T14:40:19;5.32;;;4.55;;
62709;SDS011;48770;51.624;5.886;2023-07-09T14:42:46;6.10;;;3.55;;
62709;SDS011;48770;51.624;5.886;2023-07-09T14:45:22;6.00;;;4.18;;
62709;SDS011;48770;51.624;5.886;2023-07-09T14:47:53;5.13;;;3.40;;
62709;SDS011;48770;51.624;5.886;2023-07-09T14:50:20;4.32;;;3.55;;
62709;SDS011;48770;51.624;5.886;2023-07-09T14:52:47;4.88;;;3.30;;
62709;SDS011;48770;51.624;5.886;2023-07-09T14:55:14;4.38;;;3.83;;
62709;SDS011;48770;51.624;5.886;2023-07-09T14:57:44;4.63;;;3.80;;
62709;SDS011;48770;51.624;5.886;2023-07-09T15:02:46;3.58;;;3.22;;
62709;SDS011;48770;51.624;5.886;2023-07-09T15:05:22;3.85;;;3.42;;
62709;SDS011;48770;51.624;5.886;2023-07-09T15:07:49;5.32;;;3.42;;
62709;SDS011;48770;51.624;5.886;2023-07-09T15:10:22;5.70;;;4.00;;
62709;SDS011;48770;51.624;5.886;2023-07-09T15:12:50;6.13;;;3.92;;
62709;SDS011;48770;51.624;5.886;2023-07-09T15:17:55;4.32;;;3.80;;
62709;SDS011;48770;51.624;5.886;2023-07-09T15:20:35;4.53;;;3.63;;
62709;SDS011;48770;51.624;5.886;2023-07-09T15:23:01;5.32;;;3.50;;
62709;SDS011;48770;51.624;5.886;2023-07-09T15:25:27;5.43;;;3.22;;
62709;SDS011;48770;51.624;5.886;2023-07-09T15:27:54;4.45;;;3.33;;
62709;SDS011;48770;51.624;5.886;2023-07-09T15:30:22;5.28;;;3.38;;
62709;SDS011;48770;51.624;5.886;2023-07-09T15:32:49;5.13;;;3.30;;
62709;SDS011;48770;51.624;5.886;2023-07-09T15:35:16;6.28;;;3.47;;
62709;SDS011;48770;51.624;5.886;2023-07-09T15:37:43;3.90;;;3.08;;
62709;SDS011;48770;51.624;5.886;2023-07-09T15:40:19;3.97;;;3.30;;